Time;durP1;ratioP1;P1;durP2;ratioP2;P2;SDS_P1;SDS_P2;PMS_P1;PMS_P2;Temp;Humidity;BMP_temperature;BMP_pressure;BME280_temperature;BME280_humidity;BME280_pressure;Samples;Min_cycle;Max_cycle;Signal;HPM_P1;HPM_P2
2021/05/17 00:00:15;;;;;;;11.32;9.90;;;;;;;9.17;91.73;91482.22;4969800;28;20070;-77
2021/05/17 00:02:46;;;;;;;12.90;9.32;;;;;;;9.10;92.07;91477.44;4982541;28;20042;-76
2021/05/17 00:05:12;;;;;;;10.98;9.40;;;;;;;9.07;91.88;91477.25;4933745;29;20102;-76
2021/05/17 00:07:38;;;;;;;12.27;8.82;;;;;;;9.04;91.78;91483.84;4960427;28;20111;-76
2021/05/17 00:10:06;;;;;;;12.70;8.57;;;;;;;9.03;91.58;91481.53;4978645;28;20524;-76
2021/05/17 00:12:32;;;;;;;10.07;8.02;;;;;;;8.97;91.83;91478.28;4962872;28;20049;-77
2021/05/17 00:14:58;;;;;;;9.43;8.02;;;;;;;8.95;91.43;91465.53;4969794;28;20039;-77
2021/05/17 00:17:25;;;;;;;8.13;6.18;;;;;;;8.92;91.37;91468.75;4965984;28;20110;-77
2021/05/17 00:19:51;;;;;;;7.80;5.53;;;;;;;8.93;90.65;91464.28;4973318;28;20093;-76
2021/05/17 00:22:17;;;;;;;5.03;3.42;;;;;;;8.97;87.64;91457.41;4976615;28;20501;-76
2021/05/17 00:24:43;;;;;;;6.88;4.80;;;;;;;8.95;88.65;91459.53;4953113;28;20079;-76
2021/05/17 00:27:09;;;;;;;4.65;3.00;;;;;;;8.90;88.71;91462.28;4968118;28;20043;-77
2021/05/17 00:29:35;;;;;;;4.78;2.70;;;;;;;8.81;89.11;91462.25;4965593;28;20034;-77
2021/05/17 00:32:02;;;;;;;5.32;3.13;;;;;;;8.73;89.54;91465.56;4962194;28;20047;-77
2021/05/17 00:34:28;;;;;;;6.75;4.38;;;;;;;8.62;89.73;91466.88;4968704;28;20386;-77
2021/05/17 00:36:54;;;;;;;8.68;3.80;;;;;;;8.54;89.50;91463.19;4967122;28;20074;-77
2021/05/17 00:39:20;;;;;;;6.05;4.78;;;;;;;8.44;89.62;91461.56;4968942;28;20121;-77
2021/05/17 00:41:46;;;;;;;6.45;4.50;;;;;;;8.37;89.98;91465.63;4987017;28;20057;-77
2021/05/17 00:44:12;;;;;;;8.63;5.20;;;;;;;8.37;90.42;91463.78;4971462;28;20034;-76
2021/05/17 00:46:40;;;;;;;7.05;5.53;;;;;;;8.27;90.41;91471.88;4961489;28;20059;-76
2021/05/17 00:49:06;;;;;;;11.20;5.75;;;;;;;8.21;90.34;91473.03;4965815;28;20535;-76
2021/05/17 00:51:32;;;;;;;8.50;6.68;;;;;;;8.13;90.43;91472.69;4972659;28;20038;-76
2021/05/17 00:54:01;;;;;;;8.77;7.13;;;;;;;8.07;90.92;91473.84;4950183;28;20117;-76
2021/05/17 00:56:27;;;;;;;8.32;6.68;;;;;;;8.02;90.95;91476.59;4983163;28;20390;-76
2021/05/17 00:58:53;;;;;;;8.98;7.18;;;;;;;7.98;90.94;91478.22;4967772;28;20050;-76
2021/05/17 01:01:19;;;;;;;10.05;7.80;;;;;;;7.97;92.15;91471.50;4965054;28;20046;-76
2021/05/17 01:03:45;;;;;;;9.10;7.75;;;;;;;7.95;91.96;91476.22;4968348;28;20046;-76
2021/05/17 01:06:34;;;;;;;11.48;7.72;;;;;;;7.93;92.61;91466.09;4963511;28;20061;-76
2021/05/17 01:09:03;;;;;;;10.23;8.45;;;;;;;7.88;92.38;91465.41;4964872;28;20398;-75
2021/05/17 01:11:33;;;;;;;10.30;8.23;;;;;;;7.88;92.45;91457.59;4979572;28;20042;-76
2021/05/17 01:14:05;;;;;;;10.02;8.40;;;;;;;7.89;92.53;91461.75;4983831;28;20793;-76
2021/05/17 01:16:32;;;;;;;8.88;7.00;;;;;;;7.97;93.16;91463.66;4959932;28;20059;-76
2021/05/17 01:18:59;;;;;;;8.82;7.38;;;;;;;7.97;92.60;91474.09;4946078;28;20035;-76
2021/05/17 01:21:32;;;;;;;9.35;7.15;;;;;;;7.90;92.16;91473.72;4975916;28;20502;-76
2021/05/17 01:23:57;;;;;;;10.63;7.60;;;;;;;7.83;91.60;91468.13;4949365;28;20047;-75
2021/05/17 01:26:31;;;;;;;9.35;7.53;;;;;;;7.77;91.49;91482.31;4968011;28;20039;-76
2021/05/17 01:29:05;;;;;;;7.45;5.90;;;;;;;7.78;91.38;91473.47;4969560;28;20505;-76
2021/05/17 01:31:34;;;;;;;7.38;5.88;;;;;;;7.78;91.51;91478.66;4969152;28;20524;-76
2021/05/17 01:33:59;;;;;;;10.88;6.60;;;;;;;7.72;92.05;91484.00;4973339;28;20061;-76
2021/05/17 01:36:26;;;;;;;7.35;5.22;;;;;;;7.65;91.25;91475.78;4935450;28;20054;-77
2021/05/17 01:38:55;;;;;;;7.65;5.40;;;;;;;7.60;91.44;91475.91;4965891;28;20516;-77
2021/05/17 01:41:25;;;;;;;7.85;5.47;;;;;;;7.51;91.27;91472.44;4960591;28;20047;-76
2021/05/17 01:43:55;;;;;;;6.63;5.00;;;;;;;7.46;91.72;91469.94;4951333;28;20066;-76
2021/05/17 01:46:27;;;;;;;5.45;4.65;;;;;;;7.39;91.49;91470.34;4946794;28;20065;-75
2021/05/17 01:48:59;;;;;;;5.90;4.07;;;;;;;7.35;91.54;91466.00;4971884;28;20062;-77
2021/05/17 01:51:27;;;;;;;5.10;3.85;;;;;;;7.28;90.86;91467.16;4940954;28;20292;-75
2021/05/17 01:53:55;;;;;;;4.63;3.47;;;;;;;7.25;91.27;91467.75;4980114;28;20285;-76
2021/05/17 01:56:22;;;;;;;3.90;2.60;;;;;;;7.23;91.21;91466.50;4982065;28;20505;-76
2021/05/17 01:58:51;;;;;;;6.57;2.80;;;;;;;7.25;91.62;91465.13;4951402;28;20034;-76
2021/05/17 02:01:18;;;;;;;4.18;2.53;;;;;;;7.25;91.88;91470.34;4977784;28;20055;-76
2021/05/17 02:03:47;;;;;;;5.38;2.80;;;;;;;7.19;91.39;91468.13;4969641;28;20046;-77
2021/05/17 02:06:15;;;;;;;3.47;2.17;;;;;;;7.12;91.14;91463.31;4983325;28;20035;-77
2021/05/17 02:08:46;;;;;;;2.67;1.85;;;;;;;7.04;90.87;91462.13;4953674;28;20046;-77
2021/05/17 02:11:17;;;;;;;3.65;1.85;;;;;;;7.02;91.32;91471.28;4953366;28;20141;-77
2021/05/17 02:13:50;;;;;;;2.25;1.50;;;;;;;6.95;90.82;91461.25;4969541;28;20039;-77
2021/05/17 02:16:16;;;;;;;3.75;1.60;;;;;;;6.90;90.44;91469.16;4972507;28;20057;-77
2021/05/17 02:18:47;;;;;;;2.75;1.80;;;;;;;6.84;90.35;91473.69;4936008;28;20042;-77
2021/05/17 02:21:15;;;;;;;2.47;1.63;;;;;;;6.80;90.49;91470.13;4937843;28;20461;-76
2021/05/17 02:23:42;;;;;;;3.75;1.85;;;;;;;6.76;89.93;91474.34;4951756;28;20493;-77
2021/05/17 02:26:08;;;;;;;3.75;1.73;;;;;;;6.73;90.39;91467.09;4956016;28;20042;-76
2021/05/17 02:28:36;;;;;;;3.28;1.50;;;;;;;6.70;90.69;91475.50;4973271;28;20484;-76
2021/05/17 02:31:04;;;;;;;2.08;1.50;;;;;;;6.66;90.92;91482.31;4968496;28;20075;-76
2021/05/17 02:33:30;;;;;;;4.78;1.67;;;;;;;6.62;90.88;91483.94;4970563;28;20137;-76
2021/05/17 02:35:57;;;;;;;2.83;1.73;;;;;;;6.63;91.48;91482.91;4933347;29;20062;-76
2021/05/17 02:38:23;;;;;;;2.10;1.50;;;;;;;6.63;91.20;91488.88;4949178;28;20043;-76
2021/05/17 02:40:50;;;;;;;6.13;1.67;;;;;;;6.54;90.99;91487.22;4935011;29;20051;-76
2021/05/17 02:43:16;;;;;;;5.22;1.77;;;;;;;6.49;91.19;91484.72;4948702;28;20472;-76
2021/05/17 02:46:01;;;;;;;;;;;;;;;6.47;90.83;91477.94;4947930;28;20051;-76
2021/05/17 02:48:30;;;;;;;4.25;1.80;;;;;;;6.45;90.58;91484.50;4960849;28;20392;-76
2021/05/17 02:50:57;;;;;;;3.05;1.90;;;;;;;6.44;90.47;91483.72;4971467;28;20043;-76
2021/05/17 02:53:55;;;;;;;3.58;1.67;;;;;;;6.41;90.56;91488.72;4952208;28;20058;-76
2021/05/17 02:56:36;;;;;;;5.18;2.10;;;;;;;6.38;90.66;91484.09;4984533;28;20066;-76
2021/05/17 02:59:14;;;;;;;3.58;1.80;;;;;;;6.35;90.98;91484.63;4970074;28;20077;-76
2021/05/17 03:01:49;;;;;;;2.28;1.40;;;;;;;6.29;90.91;91491.75;4984926;28;20402;-76
2021/05/17 03:04:18;;;;;;;2.35;1.58;;;;;;;6.28;91.18;91479.81;4954740;28;20477;-76
2021/05/17 03:07:06;;;;;;;3.60;1.73;;;;;;;6.24;90.43;91484.03;4953195;28;20126;-76
2021/05/17 03:09:36;;;;;;;5.55;1.85;;;;;;;6.17;90.42;91487.00;4978912;28;20144;-76
2021/05/17 03:12:03;;;;;;;2.47;1.50;;;;;;;6.15;91.03;91483.16;4968719;28;20141;-77
2021/05/17 03:14:33;;;;;;;1.25;1.00;;;;;;;6.09;89.78;91486.88;4950291;28;20043;-76
2021/05/17 03:17:06;;;;;;;3.10;1.52;;;;;;;6.10;89.40;91494.34;4970773;28;20098;-76
2021/05/17 03:19:33;;;;;;;2.00;1.33;;;;;;;6.10;89.48;91493.59;4987571;28;20106;-76
2021/05/17 03:22:00;;;;;;;2.45;1.30;;;;;;;6.07;89.67;91492.34;4953227;28;20038;-76
2021/05/17 03:24:31;;;;;;;1.83;1.20;;;;;;;6.05;89.59;91504.84;4968058;28;20053;-76
2021/05/17 03:27:07;;;;;;;1.23;0.95;;;;;;;6.01;89.49;91503.84;4965015;28;20493;-76
2021/05/17 03:29:33;;;;;;;1.30;0.70;;;;;;;6.03;86.46;91502.53;4981655;28;20053;-76
2021/05/17 03:31:59;;;;;;;0.70;0.60;;;;;;;6.09;85.33;91511.00;4967948;28;20035;-76
2021/05/17 03:34:25;;;;;;;0.63;0.60;;;;;;;6.16;82.45;91508.06;4969563;28;20051;-76
2021/05/17 03:36:50;;;;;;;0.50;0.50;;;;;;;6.21;81.84;91520.97;4969395;28;20109;-76
2021/05/17 03:39:16;;;;;;;0.80;0.77;;;;;;;6.25;83.30;91532.34;4970021;28;20624;-76
2021/05/17 03:41:42;;;;;;;2.78;0.70;;;;;;;6.20;85.16;91535.03;4960406;28;20043;-76
2021/05/17 03:44:07;;;;;;;1.52;0.80;;;;;;;6.13;85.65;91542.41;4951088;28;20431;-76
2021/05/17 03:46:33;;;;;;;0.60;0.60;;;;;;;6.08;85.94;91539.88;4968830;28;20057;-76
2021/05/17 03:48:59;;;;;;;0.60;0.60;;;;;;;6.05;84.63;91544.56;4972400;28;20054;-76
2021/05/17 03:51:24;;;;;;;1.98;0.73;;;;;;;6.02;84.79;91546.97;4952982;28;20591;-76
2021/05/17 03:53:50;;;;;;;1.08;0.60;;;;;;;5.98;84.45;91558.97;4966058;28;20047;-76
2021/05/17 03:56:15;;;;;;;1.23;0.70;;;;;;;5.95;84.82;91560.31;4952255;28;20509;-76
2021/05/17 03:58:41;;;;;;;1.65;0.80;;;;;;;5.93;85.25;91557.19;4946903;28;20047;-76
2021/05/17 04:01:07;;;;;;;2.70;0.80;;;;;;;5.89;85.50;91545.03;4955188;28;20042;-76
2021/05/17 04:03:32;;;;;;;1.00;0.80;;;;;;;5.85;85.50;91555.19;4989788;28;20478;-76
2021/05/17 04:13:52;;;;;;;1.40;1.00;;;;;;;5.85;83.23;91570.78;4956829;28;20050;-76
2021/05/17 04:16:18;;;;;;;0.82;0.82;;;;;;;5.84;83.39;91574.44;4948282;28;20493;-76
2021/05/17 04:18:45;;;;;;;3.40;0.90;;;;;;;5.84;84.30;91574.44;4964835;28;20039;-76
2021/05/17 04:21:11;;;;;;;1.48;1.20;;;;;;;5.82;84.42;91568.75;4977698;28;20101;-76
2021/05/17 04:23:37;;;;;;;0.65;0.60;;;;;;;5.81;84.30;91567.22;4926877;28;20047;-75
2021/05/17 04:26:04;;;;;;;1.02;0.70;;;;;;;5.90;76.69;91573.34;4948175;28;20142;-76
2021/05/17 04:28:30;;;;;;;1.95;0.77;;;;;;;6.09;77.22;91575.22;4961208;28;20512;-76
2021/05/17 04:30:56;;;;;;;0.70;0.70;;;;;;;6.10;79.67;91582.69;4956051;28;20694;-75
2021/05/17 04:33:22;;;;;;;1.40;0.82;;;;;;;6.10;80.38;91585.31;4940711;28;21447;-76
2021/05/17 04:35:48;;;;;;;1.10;0.70;;;;;;;6.08;80.57;91589.22;4965855;28;20035;-77
2021/05/17 04:38:13;;;;;;;0.95;0.77;;;;;;;6.05;80.94;91586.13;4968257;28;20050;-77
2021/05/17 04:40:39;;;;;;;3.13;0.90;;;;;;;6.02;81.45;91586.72;4966564;28;20041;-76
2021/05/17 04:43:05;;;;;;;0.80;0.65;;;;;;;6.07;79.46;91593.66;4965212;28;20066;-77
2021/05/17 04:45:31;;;;;;;1.77;0.75;;;;;;;6.17;77.96;91596.16;4934017;28;20094;-76
2021/05/17 04:47:56;;;;;;;0.50;0.50;;;;;;;6.23;78.07;91602.03;4941343;28;20071;-77
2021/05/17 04:50:23;;;;;;;6.75;0.70;;;;;;;6.32;77.02;91600.34;4945800;28;20422;-78
2021/05/17 04:52:49;;;;;;;0.95;0.60;;;;;;;6.39;76.35;91595.56;4948317;28;20043;-79
2021/05/17 04:55:15;;;;;;;2.60;0.77;;;;;;;6.82;66.27;91603.28;4933474;28;20054;-77
2021/05/17 04:57:41;;;;;;;0.63;0.60;;;;;;;7.01;67.62;91599.88;4935854;28;20047;-79
2021/05/17 05:00:08;;;;;;;0.65;0.60;;;;;;;7.32;65.91;91614.94;4958619;28;20042;-79
2021/05/17 05:02:34;;;;;;;1.25;0.60;;;;;;;7.48;65.95;91605.84;4938524;28;20147;-80
2021/05/17 05:05:00;;;;;;;4.93;0.93;;;;;;;7.62;65.67;91609.22;4931259;28;20058;-77
2021/05/17 05:07:25;;;;;;;2.60;0.70;;;;;;;7.77;65.60;91617.78;4951164;28;20047;-78
2021/05/17 05:09:51;;;;;;;1.48;0.85;;;;;;;7.86;66.03;91614.25;4955550;28;20039;-78
2021/05/17 05:12:17;;;;;;;1.80;0.73;;;;;;;7.99;64.55;91615.28;4937009;29;20058;-79
2021/05/17 05:14:42;;;;;;;3.08;0.60;;;;;;;8.12;64.80;91609.28;4970509;28;20494;-78
2021/05/17 05:17:08;;;;;;;1.15;0.70;;;;;;;8.52;58.58;91616.59;4945800;28;20047;-78
2021/05/17 05:19:34;;;;;;;0.80;0.63;;;;;;;8.57;61.26;91623.53;4937408;29;20035;-79
2021/05/17 05:21:59;;;;;;;0.40;0.40;;;;;;;8.69;55.30;91629.00;4955855;28;20055;-79
2021/05/17 05:24:25;;;;;;;1.60;0.80;;;;;;;8.78;56.85;91629.88;4931015;28;20054;-79
2021/05/17 05:29:29;;;;;;;2.47;0.88;;;;;;;8.96;56.07;91631.53;4937371;29;20055;-79
2021/05/17 05:34:25;;;;;;;0.82;0.65;;;;;;;9.17;53.17;91638.88;4954674;28;20043;-79
2021/05/17 05:36:51;;;;;;;0.77;0.60;;;;;;;9.23;55.60;91645.53;4954275;28;20047;-78
2021/05/17 05:39:17;;;;;;;1.00;0.60;;;;;;;9.31;55.19;91654.47;4957243;28;20497;-80
2021/05/17 05:41:43;;;;;;;0.73;0.60;;;;;;;9.37;54.75;91641.00;4979762;28;20134;-80
2021/05/17 05:44:09;;;;;;;1.45;0.70;;;;;;;9.46;55.57;91645.53;4963667;28;20043;-80
2021/05/17 05:46:35;;;;;;;6.32;0.65;;;;;;;9.65;52.31;91638.22;4956865;28;20061;-81
2021/05/17 05:49:01;;;;;;;1.60;0.70;;;;;;;9.82;52.27;91647.22;4979233;28;20404;-80
2021/05/17 05:51:28;;;;;;;1.67;0.88;;;;;;;10.08;53.46;91657.78;4980324;28;20034;-80
2021/05/17 05:53:56;;;;;;;1.38;0.80;;;;;;;11.13;48.40;91651.66;4944742;29;20055;-80
2021/05/17 05:56:23;;;;;;;1.55;0.90;;;;;;;14.31;40.62;91654.00;4958727;28;20058;-81
2021/05/17 05:58:49;;;;;;;1.30;0.80;;;;;;;16.53;35.40;91651.38;4949788;28;20046;-81
2021/05/17 06:01:15;;;;;;;1.00;0.75;;;;;;;17.51;31.63;91654.94;4963433;28;20051;-81
2021/05/17 06:03:41;;;;;;;1.65;0.80;;;;;;;19.07;32.74;91654.50;4979467;28;20043;-81
2021/05/17 06:06:10;;;;;;;0.95;0.73;;;;;;;20.61;27.80;91658.13;4979549;28;20081;-81
2021/05/17 06:08:37;;;;;;;1.08;0.65;;;;;;;19.82;28.71;91660.03;4947221;28;20074;-78
2021/05/17 06:11:04;;;;;;;1.05;0.77;;;;;;;20.79;27.08;91667.00;4982577;28;20041;-79
2021/05/17 06:13:30;;;;;;;1.48;0.80;;;;;;;21.69;24.64;91672.84;4979239;28;20106;-80
2021/05/17 06:15:56;;;;;;;1.15;0.70;;;;;;;22.03;24.26;91652.03;4960989;28;20836;-80
2021/05/17 06:18:22;;;;;;;1.65;0.77;;;;;;;22.37;22.67;91651.72;4963022;28;20127;-80
2021/05/17 06:20:48;;;;;;;1.65;0.98;;;;;;;23.06;25.46;91653.28;4977354;28;20147;-81
2021/05/17 06:23:15;;;;;;;2.75;0.80;;;;;;;22.97;23.80;91650.97;4980877;28;20125;-80
2021/05/17 06:25:42;;;;;;;2.85;0.80;;;;;;;20.82;23.23;91655.59;4960646;29;20053;-81
2021/05/17 06:28:09;;;;;;;1.25;0.70;;;;;;;23.41;24.19;91668.44;4968299;28;20139;-80
2021/05/17 06:30:47;;;;;;;2.40;1.30;;;;;;;23.14;19.66;91662.03;4980686;28;20039;-80
2021/05/17 06:33:14;;;;;;;1.88;1.05;;;;;;;23.10;22.07;91663.94;4963266;28;20540;-81
2021/05/17 06:35:45;;;;;;;2.05;1.00;;;;;;;21.77;24.63;91669.84;4981505;28;20047;-80
2021/05/17 06:38:12;;;;;;;1.50;0.85;;;;;;;23.23;23.69;91667.72;4978438;28;20050;-81
2021/05/17 06:40:38;;;;;;;1.45;0.88;;;;;;;23.44;20.38;91667.69;4979892;28;20046;-80
2021/05/17 06:43:04;;;;;;;2.88;0.50;;;;;;;22.22;22.41;91673.03;4994687;28;20053;-79
2021/05/17 06:45:30;;;;;;;3.25;0.47;;;;;;;22.66;24.34;91674.59;4976008;28;20048;-81
2021/05/17 06:47:56;;;;;;;1.17;0.63;;;;;;;20.81;22.86;91680.69;4961125;28;20510;-82
2021/05/17 06:50:22;;;;;;;2.80;0.80;;;;;;;20.63;26.69;91669.91;4941696;28;20063;-80
2021/05/17 06:52:48;;;;;;;0.77;0.40;;;;;;;18.99;23.16;91666.94;4940553;29;20134;-80
2021/05/17 06:55:18;;;;;;;1.83;0.70;;;;;;;18.79;28.24;91676.88;4958023;28;20102;-80
2021/05/17 07:00:32;;;;;;;3.10;1.15;;;;;;;18.50;27.74;91683.56;4966904;28;20043;-80
2021/05/17 07:03:07;;;;;;;0.63;0.50;;;;;;;18.43;29.47;91681.56;4941988;29;20061;-81
2021/05/17 07:05:34;;;;;;;5.28;0.80;;;;;;;18.40;30.75;91687.59;4969451;28;20128;-81
2021/05/17 07:13:12;;;;;;;0.80;0.52;;;;;;;17.11;32.98;91700.97;4957571;29;20051;-81
2021/05/17 07:15:38;;;;;;;3.22;0.80;;;;;;;16.98;29.04;91703.00;4957811;29;20054;-81
2021/05/17 07:18:04;;;;;;;3.35;0.75;;;;;;;16.77;27.67;91703.22;4957626;29;20047;-80
2021/05/17 07:25:56;;;;;;;0.57;0.50;;;;;;;16.66;31.80;91702.22;4921869;29;20044;-81
2021/05/17 07:28:22;;;;;;;2.58;0.63;;;;;;;16.11;38.40;91717.88;4955531;29;20504;-81
2021/05/17 07:30:48;;;;;;;0.75;0.50;;;;;;;15.60;33.82;91707.88;4939187;29;20068;-80
2021/05/17 07:33:15;;;;;;;1.60;0.75;;;;;;;15.56;36.18;91714.91;4937571;29;20040;-80
2021/05/17 07:35:41;;;;;;;1.30;0.70;;;;;;;15.23;39.33;91720.38;4946824;28;20051;-81
2021/05/17 07:38:07;;;;;;;3.55;0.60;;;;;;;15.15;35.84;91722.06;4957955;29;20047;-81
2021/05/17 07:40:33;;;;;;;1.02;0.65;;;;;;;15.05;36.62;91730.41;4957790;29;20073;-80
2021/05/17 07:42:59;;;;;;;3.50;0.65;;;;;;;15.48;33.81;91722.97;4957612;28;20036;-82
2021/05/17 07:45:25;;;;;;;2.20;0.50;;;;;;;15.63;30.34;91730.16;4937238;28;20058;-81
2021/05/17 07:47:51;;;;;;;1.10;0.40;;;;;;;15.21;31.37;91717.31;4925099;29;20449;-82
2021/05/17 07:50:18;;;;;;;0.47;0.47;;;;;;;15.95;31.17;91715.22;4953228;28;20055;-82
2021/05/17 07:52:44;;;;;;;2.00;0.60;;;;;;;16.01;35.46;91721.78;4959521;28;20420;-81
2021/05/17 07:55:11;;;;;;;0.57;0.45;;;;;;;16.40;31.84;91719.34;4958706;28;20054;-81
2021/05/17 07:57:37;;;;;;;1.88;0.82;;;;;;;16.58;30.79;91726.97;4959188;28;20061;-82
2021/05/17 08:00:07;;;;;;;0.80;0.50;;;;;;;16.54;30.21;91718.94;4958437;28;20043;-82
2021/05/17 08:02:34;;;;;;;1.42;0.65;;;;;;;16.80;33.39;91734.31;4976754;28;20102;-81
2021/05/17 08:05:00;;;;;;;2.15;0.82;;;;;;;17.10;34.11;91746.31;4972131;28;20061;-77
2021/05/17 08:07:25;;;;;;;2.05;0.70;;;;;;;16.38;35.25;91745.34;4934580;29;20512;-78
2021/05/17 08:09:52;;;;;;;3.75;0.60;;;;;;;16.43;38.19;91747.72;4942906;28;20190;-76
2021/05/17 08:12:18;;;;;;;2.55;0.70;;;;;;;16.91;36.98;91750.41;4945912;28;20079;-76
2021/05/17 08:14:44;;;;;;;1.27;0.50;;;;;;;17.28;34.30;91742.91;4945932;29;20535;-77
2021/05/17 08:17:10;;;;;;;2.60;0.50;;;;;;;17.56;33.20;91744.66;4934778;28;20055;-74
2021/05/17 08:19:36;;;;;;;2.50;0.70;;;;;;;16.91;30.89;91734.56;4945799;28;20130;-76
2021/05/17 08:22:03;;;;;;;1.25;0.77;;;;;;;16.48;31.00;91732.75;4935565;29;20134;-77
2021/05/17 08:24:29;;;;;;;1.02;0.55;;;;;;;16.06;33.56;91738.50;4953130;29;20043;-76
2021/05/17 08:26:55;;;;;;;1.17;0.60;;;;;;;16.40;31.98;91732.56;4951242;29;20043;-76
2021/05/17 08:29:22;;;;;;;0.93;0.40;;;;;;;16.52;29.35;91734.34;4951935;28;20401;-76
2021/05/17 08:31:50;;;;;;;1.15;0.73;;;;;;;16.34;28.21;91722.59;4967990;28;20050;-76
2021/05/17 08:34:16;;;;;;;1.15;0.60;;;;;;;15.80;28.19;91718.56;4966474;28;20046;-76
2021/05/17 08:36:42;;;;;;;4.05;0.60;;;;;;;15.92;29.94;91715.09;4952213;29;20058;-76
2021/05/17 08:39:09;;;;;;;0.88;0.40;;;;;;;15.92;28.97;91718.53;4937911;29;20501;-77
2021/05/17 08:41:38;;;;;;;2.10;0.30;;;;;;;15.46;28.12;91725.91;4953701;29;20449;-77
2021/05/17 08:44:05;;;;;;;2.92;0.60;;;;;;;15.75;30.84;91734.66;4952322;28;20039;-76
2021/05/17 08:46:31;;;;;;;0.40;0.40;;;;;;;15.76;29.80;91742.25;4943282;28;20059;-76
2021/05/17 08:48:57;;;;;;;0.60;0.40;;;;;;;16.06;29.17;91749.06;4954334;28;20068;-76
2021/05/17 08:51:26;;;;;;;0.38;0.38;;;;;;;15.61;29.35;91740.28;4971717;28;20043;-76
2021/05/17 08:53:54;;;;;;;0.68;0.47;;;;;;;15.98;30.62;91733.00;4952733;29;20043;-76
2021/05/17 08:56:20;;;;;;;0.75;0.60;;;;;;;15.72;28.31;91730.81;4975985;28;20046;-78
2021/05/17 08:58:47;;;;;;;2.92;0.57;;;;;;;16.10;29.23;91734.06;4957388;28;20081;-79
2021/05/17 09:01:13;;;;;;;1.48;0.73;;;;;;;16.34;29.13;91736.56;4960372;28;20035;-78
2021/05/17 09:03:38;;;;;;;0.57;0.40;;;;;;;16.55;29.12;91727.63;4956476;28;20386;-79
2021/05/17 09:06:09;;;;;;;0.43;0.43;;;;;;;16.66;30.62;91731.28;4957657;28;20037;-79
2021/05/17 09:08:42;;;;;;;0.43;0.40;;;;;;;16.83;27.75;91738.91;4973761;28;20489;-79
2021/05/17 09:11:08;;;;;;;0.50;0.45;;;;;;;17.10;29.47;91754.22;4974182;28;20436;-78
2021/05/17 09:13:34;;;;;;;0.90;0.45;;;;;;;17.24;28.38;91747.38;4973771;28;20050;-79
2021/05/17 09:16:00;;;;;;;1.75;1.00;;;;;;;17.56;29.30;91744.66;4973995;28;20505;-79
2021/05/17 09:18:28;;;;;;;0.85;0.50;;;;;;;17.12;27.48;91738.78;4973941;28;20050;-79
2021/05/17 09:20:57;;;;;;;0.95;0.50;;;;;;;16.65;25.68;91732.41;4971203;28;20129;-79
2021/05/17 09:23:31;;;;;;;0.85;0.40;;;;;;;16.71;28.64;91746.91;4971241;28;20051;-79
2021/05/17 09:26:19;;;;;;;1.70;0.40;;;;;;;16.95;27.92;91758.41;4973600;28;20043;-79
2021/05/17 09:28:51;;;;;;;0.60;0.40;;;;;;;17.19;29.15;91766.16;4988921;28;20065;-79
2021/05/17 09:31:22;;;;;;;0.80;0.70;;;;;;;16.94;26.74;91756.91;4988051;28;20054;-78
2021/05/17 09:33:48;;;;;;;0.47;0.30;;;;;;;17.27;26.18;91762.56;4973566;28;20051;-78
2021/05/17 09:36:30;;;;;;;0.55;0.50;;;;;;;17.24;28.20;91762.47;4973379;28;20032;-79
2021/05/17 09:39:11;;;;;;;0.60;0.40;;;;;;;16.92;26.79;91751.19;4973528;28;20047;-79
2021/05/17 09:41:43;;;;;;;1.73;0.50;;;;;;;16.97;27.06;91769.41;4972792;28;20327;-80
2021/05/17 09:44:15;;;;;;;0.88;0.50;;;;;;;17.05;25.42;91776.41;4974896;28;20045;-80
2021/05/17 09:47:13;;;;;;;3.90;0.68;;;;;;;16.87;24.52;91775.25;4955420;28;20046;-81
2021/05/17 09:49:42;;;;;;;0.30;0.30;;;;;;;16.37;25.40;91775.50;4957774;28;20097;-82
2021/05/17 09:52:10;;;;;;;0.88;0.60;;;;;;;16.50;28.27;91772.78;4959332;28;20130;-80
2021/05/17 09:55:06;;;;;;;0.32;0.30;;;;;;;16.92;27.85;91778.38;4945367;28;20043;-79
2021/05/17 09:57:43;;;;;;;0.47;0.40;;;;;;;17.40;29.08;91783.59;4958149;28;20042;-80
2021/05/17 10:00:12;;;;;;;1.55;0.73;;;;;;;17.18;25.95;91780.50;4972654;28;20065;-79
2021/05/17 10:02:48;;;;;;;1.00;0.40;;;;;;;17.53;29.59;91795.59;4973817;28;20066;-79
2021/05/17 10:05:21;;;;;;;0.57;0.40;;;;;;;17.13;25.42;91785.25;4987911;28;20103;-79
2021/05/17 10:08:04;;;;;;;0.57;0.52;;;;;;;16.59;26.27;91789.25;4958337;28;20055;-79
2021/05/17 10:10:32;;;;;;;1.05;0.68;;;;;;;17.05;26.98;91779.81;4941188;28;20153;-77
2021/05/17 10:13:00;;;;;;;2.70;0.50;;;;;;;17.07;25.97;91771.56;4955594;28;20729;-79
2021/05/17 10:15:29;;;;;;;0.32;0.30;;;;;;;16.95;26.96;91775.03;4957882;28;20055;-79
2021/05/17 10:17:55;;;;;;;0.63;0.38;;;;;;;17.21;28.00;91774.50;4975153;28;20043;-79
2021/05/17 10:20:23;;;;;;;0.57;0.40;;;;;;;17.11;29.71;91782.19;4974491;28;20058;-81
2021/05/17 10:22:51;;;;;;;2.20;0.80;;;;;;;16.78;26.65;91784.06;4990023;28;20041;-83
2021/05/17 10:25:28;;;;;;;0.55;0.40;;;;;;;16.59;26.35;91790.00;4976392;28;20066;-84
2021/05/17 10:27:57;;;;;;;0.40;0.40;;;;;;;17.44;25.29;91802.97;4977811;28;20428;-79
2021/05/17 10:30:28;;;;;;;1.02;0.40;;;;;;;17.58;27.88;91795.31;4991191;28;20497;-80
2021/05/17 10:32:54;;;;;;;0.63;0.38;;;;;;;17.91;26.79;91802.09;4961235;28;20263;-79
2021/05/17 10:35:28;;;;;;;0.40;0.25;;;;;;;18.19;27.37;91798.47;4979034;28;20110;-80
2021/05/17 10:38:19;;;;;;;0.50;0.35;;;;;;;18.19;24.11;91799.22;4979641;28;20050;-80
2021/05/17 10:40:48;;;;;;;0.85;0.30;;;;;;;18.10;25.75;91812.69;4981285;28;20042;-81
2021/05/17 10:43:21;;;;;;;1.05;0.55;;;;;;;17.15;25.79;91810.25;4995481;28;20051;-81
2021/05/17 10:48:30;;;;;;;0.45;0.25;;;;;;;16.80;26.23;91818.88;4977894;28;20270;-80
2021/05/17 10:51:09;;;;;;;0.50;0.38;;;;;;;17.00;26.18;91816.31;4961018;28;20446;-81
2021/05/17 10:53:55;;;;;;;0.77;0.40;;;;;;;16.92;27.97;91812.75;4977948;28;20047;-81
2021/05/17 11:02:28;;;;;;;0.43;0.40;;;;;;;18.28;28.25;91830.81;4978997;28;20450;-81
2021/05/17 11:05:19;;;;;;;2.08;0.75;;;;;;;18.76;26.61;91812.75;4979323;28;20042;-81
2021/05/17 11:07:51;;;;;;;0.30;0.30;;;;;;;19.35;24.75;91824.72;4960924;29;20078;-81
2021/05/17 11:10:33;;;;;;;0.10;0.10;;;;;;;19.68;23.73;91817.22;4961229;29;20391;-82
2021/05/17 11:13:21;;;;;;;1.83;0.30;;;;;;;19.18;21.42;91805.88;4975152;28;20074;-84
2021/05/17 11:16:00;;;;;;;0.30;0.30;;;;;;;18.76;22.74;91812.75;4957454;29;20094;-82
2021/05/17 11:18:34;;;;;;;0.30;0.30;;;;;;;18.34;21.83;91816.16;4958433;29;20043;-80
2021/05/17 11:21:02;;;;;;;0.20;0.20;;;;;;;19.43;24.09;91811.56;4946794;28;20043;-84
2021/05/17 11:23:37;;;;;;;1.38;0.20;;;;;;;19.71;23.71;91817.31;4975089;28;20039;-84
2021/05/17 11:26:13;;;;;;;0.20;0.20;;;;;;;19.81;21.55;91796.56;4993992;28;20038;-83
2021/05/17 11:28:42;;;;;;;0.38;0.20;;;;;;;19.84;22.33;91806.47;4999624;28;20042;-81
2021/05/17 11:31:57;;;;;;;0.38;0.28;;;;;;;19.87;22.54;91819.03;4981538;28;20089;-82
2021/05/17 11:34:01;;;;;;;1.30;0.38;;;;;;;18.90;24.60;91826.28;4975134;28;20066;-81
2021/05/17 11:36:38;;;;;;;0.20;0.20;;;;;;;17.99;22.89;91821.53;4978576;28;20516;-84
2021/05/17 11:39:28;;;;;;;2.88;0.50;;;;;;;18.09;24.39;91811.16;4978752;28;20051;-82
2021/05/17 11:41:54;;;;;;;0.52;0.30;;;;;;;17.86;26.56;91820.91;4978598;28;20043;-81
2021/05/17 11:44:39;;;;;;;1.38;0.30;;;;;;;18.02;24.85;91826.91;4978116;28;20035;-82
2021/05/17 11:47:34;;;;;;;0.50;0.50;;;;;;;18.28;24.21;91836.09;4964494;28;20062;-82
2021/05/17 11:50:01;;;;;;;0.28;0.22;;;;;;;18.33;22.93;91835.84;4977963;28;20046;-82
2021/05/17 11:52:29;;;;;;;0.35;0.30;;;;;;;18.39;23.37;91834.41;4981080;28;20042;-82
2021/05/17 11:55:00;;;;;;;1.55;0.45;;;;;;;18.73;23.49;91826.69;4967332;28;20050;-83
2021/05/17 11:57:35;;;;;;;0.28;0.25;;;;;;;19.46;23.23;91816.16;4978573;28;20046;-82
2021/05/17 12:00:05;;;;;;;0.73;0.20;;;;;;;19.12;20.65;91814.13;4978701;28;20516;-81
2021/05/17 12:02:52;;;;;;;0.25;0.25;;;;;;;19.31;20.43;91818.59;4978730;28;20030;-82
2021/05/17 12:05:20;;;;;;;0.20;0.20;;;;;;;19.74;22.22;91821.88;4976739;28;20035;-82
2021/05/17 12:07:52;;;;;;;1.02;0.50;;;;;;;19.75;21.97;91826.09;4978365;28;20043;-81
2021/05/17 12:10:20;;;;;;;0.60;0.50;;;;;;;19.70;22.80;91817.66;4978794;28;20046;-82
2021/05/17 12:12:46;;;;;;;0.93;0.30;;;;;;;19.54;21.58;91821.22;4978400;28;20383;-82
2021/05/17 12:15:17;;;;;;;0.15;0.15;;;;;;;19.52;22.46;91828.00;4977813;28;20066;-81
2021/05/17 12:17:42;;;;;;;1.10;0.28;;;;;;;19.25;21.72;91825.34;4959321;28;20051;-81
2021/05/17 12:20:13;;;;;;;1.85;0.30;;;;;;;19.50;22.03;91825.72;4977391;28;20082;-82